Time;durP1;ratioP1;P1;durP2;ratioP2;P2;SDS_P1;SDS_P2;PMS_P1;PMS_P2;Temp;Humidity;BMP_temperature;BMP_pressure;BME280_temperature;BME280_humidity;BME280_pressure;Samples;Min_cycle;Max_cycle;Signal;HPM_P1;HPM_P2
2024/01/31 00:02:19;;;;;;;0.10;0.10;;;;;;;;;;5030938;28;20060;-78
2024/01/31 00:04:45;;;;;;;0.20;0.20;;;;;;;;;;5048530;28;20081;-78
2024/01/31 00:07:12;;;;;;;0.10;0.10;;;;;;;;;;5046183;28;20093;-78
2024/01/31 00:09:39;;;;;;;0.43;0.40;;;;;;;;;;5047973;28;20057;-78
2024/01/31 00:12:06;;;;;;;0.10;0.10;;;;;;;;;;5045569;28;20053;-78
2024/01/31 00:14:32;;;;;;;0.10;0.10;;;;;;;;;;5046547;28;20597;-78
2024/01/31 00:16:59;;;;;;;0.10;0.10;;;;;;;;;;5047817;28;20049;-78
2024/01/31 00:19:25;;;;;;;0.20;0.20;;;;;;;;;;5051098;28;20064;-77
2024/01/31 00:21:52;;;;;;;0.10;0.10;;;;;;;;;;5040936;28;20107;-78
2024/01/31 00:24:18;;;;;;;0.10;0.10;;;;;;;;;;5046121;28;20049;-77
2024/01/31 00:26:45;;;;;;;0.10;0.10;;;;;;;;;;5041782;28;20061;-78
2024/01/31 00:29:11;;;;;;;0.10;0.10;;;;;;;;;;5043875;28;20534;-78
2024/01/31 00:31:38;;;;;;;0.10;0.10;;;;;;;;;;5045838;28;20057;-78
2024/01/31 00:34:04;;;;;;;0.10;0.10;;;;;;;;;;5047261;28;20061;-79
2024/01/31 00:36:31;;;;;;;0.10;0.10;;;;;;;;;;5045789;28;20163;-78
2024/01/31 00:38:59;;;;;;;0.10;0.10;;;;;;;;;;5047415;28;20084;-78
2024/01/31 00:41:26;;;;;;;0.10;0.10;;;;;;;;;;5046173;28;20047;-77
2024/01/31 00:43:52;;;;;;;0.10;0.10;;;;;;;;;;5047324;28;20531;-79
2024/01/31 00:46:18;;;;;;;0.10;0.10;;;;;;;;;;5036996;28;20077;-78
2024/01/31 00:48:45;;;;;;;0.10;0.10;;;;;;;;;;5045703;28;20057;-78
2024/01/31 00:51:12;;;;;;;0.10;0.10;;;;;;;;;;5039801;28;20503;-78
2024/01/31 00:53:38;;;;;;;0.10;0.10;;;;;;;;;;5045848;28;20054;-77
2024/01/31 00:56:05;;;;;;;0.10;0.10;;;;;;;;;;5040694;28;20423;-78
2024/01/31 00:58:32;;;;;;;0.10;0.10;;;;;;;;;;5047348;28;20124;-78
2024/01/31 01:00:58;;;;;;;0.10;0.10;;;;;;;;;;5047680;28;20136;-78
2024/01/31 01:03:25;;;;;;;0.10;0.10;;;;;;;;;;5034794;28;20559;-78
2024/01/31 01:05:51;;;;;;;0.10;0.10;;;;;;;;;;5032765;28;20461;-77
2024/01/31 01:08:18;;;;;;;0.10;0.10;;;;;;;;;;5046960;28;20049;-79
2024/01/31 01:10:44;;;;;;;0.10;0.10;;;;;;;;;;5027672;28;20119;-77
2024/01/31 01:13:11;;;;;;;0.10;0.10;;;;;;;;;;5053536;28;20049;-77
2024/01/31 01:15:37;;;;;;;0.10;0.10;;;;;;;;;;5046140;28;20145;-78
2024/01/31 01:18:04;;;;;;;0.10;0.10;;;;;;;;;;5038206;28;20053;-78
2024/01/31 01:20:30;;;;;;;0.10;0.10;;;;;;;;;;5046669;28;20866;-78
2024/01/31 01:22:57;;;;;;;0.10;0.10;;;;;;;;;;5045096;28;20096;-78
2024/01/31 01:25:23;;;;;;;0.10;0.10;;;;;;;;;;5046450;28;20107;-78
2024/01/31 01:27:53;;;;;;;0.10;0.10;;;;;;;;;;5045155;28;20508;-78
2024/01/31 01:30:20;;;;;;;0.10;0.10;;;;;;;;;;5046537;28;20061;-79
2024/01/31 01:32:46;;;;;;;0.10;0.10;;;;;;;;;;5047053;28;20045;-77
2024/01/31 01:35:13;;;;;;;0.10;0.10;;;;;;;;;;5047841;28;20066;-78
2024/01/31 01:37:40;;;;;;;0.10;0.10;;;;;;;;;;5029973;28;20104;-78
2024/01/31 01:40:07;;;;;;;0.10;0.10;;;;;;;;;;5046103;28;20081;-78
2024/01/31 01:42:37;;;;;;;0.10;0.10;;;;;;;;;;5039026;28;20562;-78
2024/01/31 01:45:04;;;;;;;0.10;0.10;;;;;;;;;;5046526;28;20061;-78
2024/01/31 01:47:30;;;;;;;0.10;0.10;;;;;;;;;;5047023;28;20085;-78
2024/01/31 01:49:57;;;;;;;0.10;0.10;;;;;;;;;;5046238;28;20059;-78
2024/01/31 01:52:24;;;;;;;0.10;0.10;;;;;;;;;;5046791;28;20423;-78
2024/01/31 01:54:51;;;;;;;0.10;0.10;;;;;;;;;;5046999;28;20054;-78
2024/01/31 01:57:18;;;;;;;0.10;0.10;;;;;;;;;;5040728;28;20054;-78
2024/01/31 01:59:45;;;;;;;0.10;0.10;;;;;;;;;;5046241;28;20636;-78
2024/01/31 02:02:11;;;;;;;0.10;0.10;;;;;;;;;;5048494;28;20053;-78
2024/01/31 02:04:38;;;;;;;0.10;0.10;;;;;;;;;;5049706;28;20061;-77
2024/01/31 02:07:05;;;;;;;0.10;0.10;;;;;;;;;;5046908;28;20091;-78
2024/01/31 02:09:32;;;;;;;0.10;0.10;;;;;;;;;;5048713;28;20064;-78
2024/01/31 02:11:59;;;;;;;0.10;0.10;;;;;;;;;;5027604;28;20049;-78
2024/01/31 02:14:25;;;;;;;0.10;0.10;;;;;;;;;;5049891;28;20064;-78
2024/01/31 02:16:56;;;;;;;0.10;0.10;;;;;;;;;;5042950;28;20057;-78
2024/01/31 02:19:23;;;;;;;0.10;0.10;;;;;;;;;;5048617;28;20530;-77
2024/01/31 02:21:51;;;;;;;0.10;0.10;;;;;;;;;;5041034;28;20108;-77
2024/01/31 02:24:17;;;;;;;0.10;0.10;;;;;;;;;;5047040;28;20602;-78
2024/01/31 02:26:46;;;;;;;0.10;0.10;;;;;;;;;;5049324;28;20124;-77
2024/01/31 02:29:12;;;;;;;0.10;0.10;;;;;;;;;;5026558;28;20053;-79
2024/01/31 02:31:39;;;;;;;0.10;0.10;;;;;;;;;;5047252;28;21318;-78
2024/01/31 02:34:05;;;;;;;0.10;0.10;;;;;;;;;;5048483;28;20054;-78
2024/01/31 02:36:32;;;;;;;0.20;0.20;;;;;;;;;;5047238;28;20144;-78
2024/01/31 02:38:58;;;;;;;0.10;0.10;;;;;;;;;;5048896;28;20057;-77
2024/01/31 02:41:24;;;;;;;0.10;0.10;;;;;;;;;;5050195;28;20077;-78
2024/01/31 02:43:51;;;;;;;0.10;0.10;;;;;;;;;;5048617;28;20045;-77
2024/01/31 02:46:17;;;;;;;0.10;0.10;;;;;;;;;;5048412;28;20053;-78
2024/01/31 02:48:46;;;;;;;0.10;0.10;;;;;;;;;;5046818;28;20142;-77
2024/01/31 02:51:12;;;;;;;0.10;0.10;;;;;;;;;;5048846;28;20053;-78
2024/01/31 02:53:39;;;;;;;0.10;0.10;;;;;;;;;;5048102;28;20056;-77
2024/01/31 02:56:07;;;;;;;0.10;0.10;;;;;;;;;;5047729;28;20058;-77
2024/01/31 02:58:36;;;;;;;0.10;0.10;;;;;;;;;;5045480;28;20077;-77
2024/01/31 03:01:06;;;;;;;0.10;0.10;;;;;;;;;;5122243;22;20049;-80
2024/01/31 03:03:33;;;;;;;0.10;0.10;;;;;;;;;;5056897;28;20155;-79
2024/01/31 03:05:59;;;;;;;0.10;0.10;;;;;;;;;;5040015;28;20060;-79
2024/01/31 03:08:26;;;;;;;0.10;0.10;;;;;;;;;;5046793;28;20092;-80
2024/01/31 03:10:53;;;;;;;0.10;0.10;;;;;;;;;;5040197;28;20061;-79
2024/01/31 03:13:20;;;;;;;0.10;0.10;;;;;;;;;;5056232;28;20546;-80
2024/01/31 03:15:46;;;;;;;0.10;0.10;;;;;;;;;;5043969;28;20058;-80
2024/01/31 03:18:13;;;;;;;0.10;0.10;;;;;;;;;;5058626;28;20057;-79
2024/01/31 03:20:39;;;;;;;0.10;0.10;;;;;;;;;;5051380;28;20060;-80
2024/01/31 03:23:06;;;;;;;0.10;0.10;;;;;;;;;;5043376;28;20061;-80
2024/01/31 03:25:32;;;;;;;0.10;0.10;;;;;;;;;;5059725;28;20053;-80
2024/01/31 03:27:58;;;;;;;0.10;0.10;;;;;;;;;;5056793;28;20057;-79
2024/01/31 03:30:25;;;;;;;0.10;0.10;;;;;;;;;;5059105;28;20057;-79
2024/01/31 03:32:51;;;;;;;0.10;0.10;;;;;;;;;;5043870;28;20088;-81
2024/01/31 03:35:18;;;;;;;0.10;0.10;;;;;;;;;;5043786;28;20053;-81
2024/01/31 03:37:44;;;;;;;0.10;0.10;;;;;;;;;;5040240;28;20045;-79
2024/01/31 03:40:11;;;;;;;0.10;0.10;;;;;;;;;;5040010;28;20057;-81
2024/01/31 03:42:37;;;;;;;0.10;0.10;;;;;;;;;;5040103;28;20061;-79
2024/01/31 03:45:04;;;;;;;0.10;0.10;;;;;;;;;;5057688;28;20111;-78
2024/01/31 03:47:34;;;;;;;0.10;0.10;;;;;;;;;;5040132;28;20048;-79
2024/01/31 03:50:01;;;;;;;0.10;0.10;;;;;;;;;;5040728;28;20092;-79
2024/01/31 03:52:31;;;;;;;0.10;0.10;;;;;;;;;;5040879;28;20160;-80
2024/01/31 03:55:00;;;;;;;0.10;0.10;;;;;;;;;;5037574;28;20076;-79
2024/01/31 03:57:27;;;;;;;0.10;0.10;;;;;;;;;;5057422;28;20049;-78
2024/01/31 03:59:53;;;;;;;0.10;0.10;;;;;;;;;;5038548;28;20065;-78
2024/01/31 04:02:21;;;;;;;0.10;0.10;;;;;;;;;;5051003;28;20144;-79
2024/01/31 04:04:47;;;;;;;0.10;0.10;;;;;;;;;;5050938;28;20054;-79
2024/01/31 04:07:14;;;;;;;0.10;0.10;;;;;;;;;;5039048;28;20089;-79
2024/01/31 04:09:40;;;;;;;0.10;0.10;;;;;;;;;;5056020;28;20053;-79
2024/01/31 04:12:07;;;;;;;0.10;0.10;;;;;;;;;;5038275;28;20057;-79
2024/01/31 04:14:33;;;;;;;0.10;0.10;;;;;;;;;;5029853;28;20111;-79
2024/01/31 04:17:00;;;;;;;0.25;0.25;;;;;;;;;;5053427;28;20092;-79
2024/01/31 04:19:26;;;;;;;0.10;0.10;;;;;;;;;;5051383;28;20066;-79
2024/01/31 04:21:55;;;;;;;0.10;0.10;;;;;;;;;;5037396;28;20059;-79
2024/01/31 04:24:21;;;;;;;0.10;0.10;;;;;;;;;;5052260;28;20574;-79
2024/01/31 04:26:48;;;;;;;0.10;0.10;;;;;;;;;;5055695;28;20068;-79
2024/01/31 04:29:14;;;;;;;0.10;0.10;;;;;;;;;;5037524;28;20103;-79
2024/01/31 04:31:43;;;;;;;0.10;0.10;;;;;;;;;;5037633;28;20095;-79
2024/01/31 04:34:10;;;;;;;0.10;0.10;;;;;;;;;;5039202;28;20042;-79
2024/01/31 04:36:37;;;;;;;0.10;0.10;;;;;;;;;;5031929;28;20057;-79
2024/01/31 04:39:03;;;;;;;0.10;0.10;;;;;;;;;;5038670;28;20053;-79
2024/01/31 04:41:29;;;;;;;0.10;0.10;;;;;;;;;;5054099;28;20058;-79
2024/01/31 04:43:56;;;;;;;0.10;0.10;;;;;;;;;;5054453;28;21055;-79
2024/01/31 04:46:34;;;;;;;0.10;0.10;;;;;;;;;;5037703;28;20073;-79
2024/01/31 04:49:18;;;;;;;0.10;0.10;;;;;;;;;;5031932;28;20053;-78
2024/01/31 04:51:59;;;;;;;0.10;0.10;;;;;;;;;;5053055;28;20140;-78
2024/01/31 04:54:25;;;;;;;0.10;0.10;;;;;;;;;;5055553;28;20107;-80
2024/01/31 04:56:52;;;;;;;0.10;0.10;;;;;;;;;;5054760;28;20061;-78
2024/01/31 04:59:19;;;;;;;0.10;0.10;;;;;;;;;;5037349;28;20104;-78
2024/01/31 05:01:46;;;;;;;0.10;0.10;;;;;;;;;;5035753;28;20049;-78
2024/01/31 05:04:12;;;;;;;0.10;0.10;;;;;;;;;;5050134;28;20077;-79
2024/01/31 05:06:39;;;;;;;0.10;0.10;;;;;;;;;;5054120;28;20140;-80
2024/01/31 05:09:06;;;;;;;0.10;0.10;;;;;;;;;;5055755;28;20084;-79
2024/01/31 05:11:33;;;;;;;0.10;0.10;;;;;;;;;;5032439;28;20986;-80
2024/01/31 05:13:59;;;;;;;0.10;0.10;;;;;;;;;;5053891;28;20045;-80
2024/01/31 05:16:26;;;;;;;0.10;0.10;;;;;;;;;;5054601;28;20065;-79
2024/01/31 05:18:55;;;;;;;0.10;0.10;;;;;;;;;;5055527;28;20049;-79
2024/01/31 05:21:21;;;;;;;0.10;0.10;;;;;;;;;;5035717;28;20095;-79
2024/01/31 05:23:48;;;;;;;0.10;0.10;;;;;;;;;;5037481;28;20065;-79
2024/01/31 05:26:14;;;;;;;0.10;0.10;;;;;;;;;;5041713;28;20096;-79
2024/01/31 05:28:43;;;;;;;0.10;0.10;;;;;;;;;;5055993;28;20111;-79
2024/01/31 05:31:09;;;;;;;0.10;0.10;;;;;;;;;;5037521;28;20048;-79
2024/01/31 05:33:36;;;;;;;0.10;0.10;;;;;;;;;;5054392;28;20045;-79
2024/01/31 05:36:02;;;;;;;0.10;0.10;;;;;;;;;;5039978;28;20054;-79
2024/01/31 05:38:29;;;;;;;0.10;0.10;;;;;;;;;;5040491;28;20096;-79
2024/01/31 05:40:55;;;;;;;0.10;0.10;;;;;;;;;;5048644;28;20042;-79
2024/01/31 05:43:22;;;;;;;0.10;0.10;;;;;;;;;;5039529;28;20060;-80
2024/01/31 05:45:48;;;;;;;0.10;0.10;;;;;;;;;;5052300;28;20057;-79
2024/01/31 05:48:16;;;;;;;0.10;0.10;;;;;;;;;;5043382;28;20049;-79
2024/01/31 05:50:42;;;;;;;0.10;0.10;;;;;;;;;;5051172;28;20137;-79
2024/01/31 05:53:09;;;;;;;0.10;0.10;;;;;;;;;;5041143;28;20207;-79
2024/01/31 05:55:35;;;;;;;0.10;0.10;;;;;;;;;;5061115;28;20053;-79
2024/01/31 05:58:02;;;;;;;0.20;0.20;;;;;;;;;;5041985;28;20050;-79
2024/01/31 06:00:29;;;;;;;0.10;0.10;;;;;;;;;;5043265;28;20054;-80
2024/01/31 06:02:55;;;;;;;0.10;0.10;;;;;;;;;;5057036;28;20061;-79
2024/01/31 06:05:26;;;;;;;0.10;0.10;;;;;;;;;;5057918;28;20491;-78
2024/01/31 06:07:55;;;;;;;0.10;0.10;;;;;;;;;;5040557;28;20053;-79
2024/01/31 06:10:21;;;;;;;0.10;0.10;;;;;;;;;;5036641;28;20060;-80
2024/01/31 06:12:48;;;;;;;0.10;0.10;;;;;;;;;;5042730;28;20057;-79
2024/01/31 06:15:14;;;;;;;0.10;0.10;;;;;;;;;;5036963;28;20093;-79
2024/01/31 06:17:41;;;;;;;0.10;0.10;;;;;;;;;;5037583;28;20053;-79
2024/01/31 06:20:08;;;;;;;0.10;0.10;;;;;;;;;;5055315;28;20073;-80
2024/01/31 06:22:36;;;;;;;1.45;1.08;;;;;;;;;;5035860;28;20515;-79
2024/01/31 06:25:03;;;;;;;0.10;0.10;;;;;;;;;;5049114;28;20053;-79
2024/01/31 06:27:29;;;;;;;0.10;0.10;;;;;;;;;;5043561;28;20426;-79
2024/01/31 06:29:56;;;;;;;0.10;0.10;;;;;;;;;;5055792;28;20096;-78
2024/01/31 06:32:31;;;;;;;0.10;0.10;;;;;;;;;;5034868;28;20061;-80
2024/01/31 06:35:01;;;;;;;0.10;0.10;;;;;;;;;;5042860;28;20105;-79
2024/01/31 06:37:30;;;;;;;0.10;0.10;;;;;;;;;;5044127;28;20034;-80
2024/01/31 06:39:57;;;;;;;0.10;0.10;;;;;;;;;;5031895;28;20085;-80
2024/01/31 06:42:24;;;;;;;0.10;0.10;;;;;;;;;;5037336;28;20060;-80
2024/01/31 06:44:51;;;;;;;0.10;0.10;;;;;;;;;;5038401;28;20531;-79
2024/01/31 06:47:17;;;;;;;0.10;0.10;;;;;;;;;;5037611;28;20135;-79
2024/01/31 06:49:43;;;;;;;0.10;0.10;;;;;;;;;;5055976;28;20063;-80
2024/01/31 06:52:10;;;;;;;0.10;0.10;;;;;;;;;;5040634;28;20057;-80
2024/01/31 06:54:37;;;;;;;0.10;0.10;;;;;;;;;;5037291;28;20049;-80
2024/01/31 06:57:04;;;;;;;0.10;0.10;;;;;;;;;;5054555;28;20329;-79
2024/01/31 06:59:30;;;;;;;0.10;0.10;;;;;;;;;;5053095;28;20033;-80
2024/01/31 07:01:56;;;;;;;0.10;0.10;;;;;;;;;;5033308;28;20141;-80
2024/01/31 07:04:23;;;;;;;0.10;0.10;;;;;;;;;;5037857;28;20054;-80
2024/01/31 07:06:49;;;;;;;0.10;0.10;;;;;;;;;;5036370;28;20085;-80
2024/01/31 07:09:16;;;;;;;0.43;0.43;;;;;;;;;;5053955;28;20049;-80
2024/01/31 07:11:43;;;;;;;0.10;0.10;;;;;;;;;;5063254;28;20050;-80
2024/01/31 07:14:09;;;;;;;0.10;0.10;;;;;;;;;;5043138;28;20061;-81
2024/01/31 07:16:35;;;;;;;0.10;0.10;;;;;;;;;;5039206;28;20057;-81
2024/01/31 07:19:02;;;;;;;0.10;0.10;;;;;;;;;;5056101;28;20499;-80
2024/01/31 07:21:29;;;;;;;0.10;0.10;;;;;;;;;;5036306;28;20057;-80
2024/01/31 07:23:56;;;;;;;0.10;0.10;;;;;;;;;;5041968;28;20081;-80
2024/01/31 07:26:36;;;;;;;0.10;0.10;;;;;;;;;;5036633;28;20561;-80
2024/01/31 07:29:03;;;;;;;0.10;0.10;;;;;;;;;;5036494;28;20053;-80
2024/01/31 07:31:29;;;;;;;1.65;1.13;;;;;;;;;;5039679;28;20049;-80
2024/01/31 07:33:56;;;;;;;0.10;0.10;;;;;;;;;;5055837;28;20053;-80
2024/01/31 07:36:23;;;;;;;0.10;0.10;;;;;;;;;;5038264;28;20050;-80
2024/01/31 07:38:52;;;;;;;0.10;0.10;;;;;;;;;;5037596;28;20176;-80
2024/01/31 07:41:19;;;;;;;0.20;0.20;;;;;;;;;;5038591;28;20069;-80
2024/01/31 07:43:48;;;;;;;0.10;0.10;;;;;;;;;;5037859;28;20053;-81
2024/01/31 07:46:14;;;;;;;0.10;0.10;;;;;;;;;;5031104;28;20088;-80
2024/01/31 07:48:41;;;;;;;0.10;0.10;;;;;;;;;;5038042;28;20060;-80
2024/01/31 07:51:08;;;;;;;0.10;0.10;;;;;;;;;;5037365;28;20045;-80
2024/01/31 07:53:36;;;;;;;0.10;0.10;;;;;;;;;;5036646;28;20060;-80
2024/01/31 07:56:11;;;;;;;0.10;0.10;;;;;;;;;;5039868;28;20099;-80
2024/01/31 07:58:38;;;;;;;0.10;0.10;;;;;;;;;;5052199;28;20045;-80
2024/01/31 08:01:05;;;;;;;0.32;0.32;;;;;;;;;;5051876;28;20058;-81
2024/01/31 08:03:34;;;;;;;0.10;0.10;;;;;;;;;;5041425;28;20128;-80
2024/01/31 08:06:01;;;;;;;0.25;0.22;;;;;;;;;;5039534;28;20104;-80
2024/01/31 08:08:27;;;;;;;0.85;0.85;;;;;;;;;;5033922;28;20068;-79
2024/01/31 08:10:55;;;;;;;0.10;0.10;;;;;;;;;;5053126;28;20041;-80
2024/01/31 08:13:22;;;;;;;0.15;0.15;;;;;;;;;;5035179;28;20095;-79
2024/01/31 08:15:48;;;;;;;0.30;0.30;;;;;;;;;;5037137;28;20641;-80
2024/01/31 08:18:15;;;;;;;0.10;0.10;;;;;;;;;;5032007;28;21183;-80
2024/01/31 08:20:41;;;;;;;0.10;0.10;;;;;;;;;;5036949;28;20081;-80
2024/01/31 08:23:08;;;;;;;0.10;0.10;;;;;;;;;;5055917;28;20495;-80
2024/01/31 08:25:34;;;;;;;0.10;0.10;;;;;;;;;;5050840;28;20042;-81
2024/01/31 08:28:01;;;;;;;0.10;0.10;;;;;;;;;;5038737;28;20129;-80
2024/01/31 08:30:27;;;;;;;0.10;0.10;;;;;;;;;;5036217;28;20084;-80
2024/01/31 08:32:54;;;;;;;0.10;0.10;;;;;;;;;;5041380;28;20562;-80
2024/01/31 08:35:21;;;;;;;0.10;0.10;;;;;;;;;;5034720;28;20061;-81
2024/01/31 08:37:48;;;;;;;0.10;0.10;;;;;;;;;;5055715;28;20053;-81
2024/01/31 08:40:17;;;;;;;0.15;0.15;;;;;;;;;;5037770;28;20590;-80
2024/01/31 08:42:46;;;;;;;0.10;0.10;;;;;;;;;;5048013;28;20053;-80
2024/01/31 08:45:13;;;;;;;0.10;0.10;;;;;;;;;;5036226;28;20047;-79
2024/01/31 08:47:41;;;;;;;0.10;0.10;;;;;;;;;;5055519;28;20621;-80
2024/01/31 08:50:09;;;;;;;0.10;0.10;;;;;;;;;;5055945;28;20029;-80
2024/01/31 08:52:36;;;;;;;0.10;0.10;;;;;;;;;;5056152;28;20068;-81
2024/01/31 08:55:02;;;;;;;0.10;0.10;;;;;;;;;;5050298;28;20498;-79
2024/01/31 08:57:29;;;;;;;0.10;0.10;;;;;;;;;;5039662;28;20103;-79
2024/01/31 08:59:55;;;;;;;0.10;0.10;;;;;;;;;;5043616;28;20057;-79
2024/01/31 09:02:22;;;;;;;0.10;0.10;;;;;;;;;;5065258;28;21081;-80
2024/01/31 09:04:48;;;;;;;0.10;0.10;;;;;;;;;;5045588;28;20068;-80
2024/01/31 09:07:15;;;;;;;0.10;0.10;;;;;;;;;;5041504;28;20057;-79
2024/01/31 09:09:41;;;;;;;0.70;0.70;;;;;;;;;;5033827;28;20038;-79
2024/01/31 09:12:08;;;;;;;0.10;0.10;;;;;;;;;;5054154;28;20842;-80
2024/01/31 09:14:35;;;;;;;0.10;0.10;;;;;;;;;;5034192;28;21450;-79
2024/01/31 09:17:01;;;;;;;0.20;0.20;;;;;;;;;;5032593;28;20148;-79
2024/01/31 09:19:28;;;;;;;0.10;0.10;;;;;;;;;;5034137;28;20059;-79
2024/01/31 09:21:55;;;;;;;0.10;0.10;;;;;;;;;;5050235;28;20057;-79
2024/01/31 09:24:23;;;;;;;0.10;0.10;;;;;;;;;;5052898;28;20079;-79
2024/01/31 09:26:50;;;;;;;0.10;0.10;;;;;;;;;;5033528;28;20054;-79
2024/01/31 09:29:17;;;;;;;0.25;0.25;;;;;;;;;;5047375;28;20112;-80
2024/01/31 09:31:44;;;;;;;0.10;0.10;;;;;;;;;;5029618;28;20953;-78
2024/01/31 09:34:10;;;;;;;0.10;0.10;;;;;;;;;;5031724;28;20053;-78
2024/01/31 09:39:07;;;;;;;0.10;0.10;;;;;;;;;;5013691;28;20050;-78
2024/01/31 09:41:33;;;;;;;0.10;0.10;;;;;;;;;;5016875;28;20058;-77
2024/01/31 09:44:00;;;;;;;0.10;0.10;;;;;;;;;;5015565;28;20053;-77
2024/01/31 09:46:27;;;;;;;0.10;0.10;;;;;;;;;;5013589;28;20609;-78
2024/01/31 09:48:53;;;;;;;0.10;0.10;;;;;;;;;;5023176;28;20611;-77
2024/01/31 09:51:21;;;;;;;0.10;0.10;;;;;;;;;;5013288;28;20643;-77
2024/01/31 09:54:00;;;;;;;0.15;0.15;;;;;;;;;;5016553;28;20061;-77
2024/01/31 09:56:31;;;;;;;0.10;0.10;;;;;;;;;;5008648;28;20074;-78
2024/01/31 09:58:58;;;;;;;;;;;;;;;;;;5010551;28;20058;-77
2024/01/31 10:01:26;;;;;;;0.10;0.10;;;;;;;;;;5014906;28;47867;-78
2024/01/31 10:03:58;;;;;;;0.10;0.10;;;;;;;;;;5019757;28;20050;-77
2024/01/31 10:06:29;;;;;;;0.10;0.10;;;;;;;;;;5013391;28;20099;-78
2024/01/31 10:08:56;;;;;;;0.55;0.35;;;;;;;;;;5018616;28;20487;-78
2024/01/31 10:11:24;;;;;;;0.10;0.10;;;;;;;;;;5019817;28;20183;-77
2024/01/31 10:13:50;;;;;;;0.10;0.10;;;;;;;;;;5018726;28;20066;-77
2024/01/31 10:16:17;;;;;;;0.10;0.10;;;;;;;;;;5011765;28;20080;-77
2024/01/31 10:18:44;;;;;;;0.10;0.10;;;;;;;;;;5011189;28;20050;-77
2024/01/31 10:21:10;;;;;;;0.10;0.10;;;;;;;;;;5017253;28;20053;-77
2024/01/31 10:23:37;;;;;;;0.10;0.10;;;;;;;;;;5021791;28;20404;-77
2024/01/31 10:26:04;;;;;;;0.10;0.10;;;;;;;;;;5024039;28;20054;-78
2024/01/31 10:28:35;;;;;;;0.20;0.20;;;;;;;;;;5027827;28;20520;-78
2024/01/31 10:31:02;;;;;;;0.10;0.10;;;;;;;;;;5020424;28;20490;-77
2024/01/31 10:33:29;;;;;;;0.10;0.10;;;;;;;;;;5018887;28;20140;-78
2024/01/31 10:35:56;;;;;;;0.20;0.20;;;;;;;;;;5020862;28;20054;-78
2024/01/31 10:38:25;;;;;;;0.10;0.10;;;;;;;;;;5014489;28;20421;-78
2024/01/31 10:40:52;;;;;;;0.10;0.10;;;;;;;;;;5025887;28;20537;-77
2024/01/31 10:43:21;;;;;;;0.20;0.20;;;;;;;;;;5024939;28;20060;-78
2024/01/31 10:45:47;;;;;;;0.10;0.10;;;;;;;;;;5013925;28;20485;-77
2024/01/31 10:48:15;;;;;;;0.32;0.32;;;;;;;;;;5014831;28;20059;-78
2024/01/31 10:50:42;;;;;;;0.10;0.10;;;;;;;;;;5015427;28;20058;-77
2024/01/31 10:53:09;;;;;;;0.10;0.10;;;;;;;;;;5017165;28;20559;-78
2024/01/31 10:55:37;;;;;;;0.10;0.10;;;;;;;;;;5024580;28;20053;-78
2024/01/31 10:58:03;;;;;;;0.10;0.10;;;;;;;;;;5027398;28;20058;-77
2024/01/31 11:00:30;;;;;;;0.10;0.10;;;;;;;;;;5023750;28;21005;-77
2024/01/31 11:02:57;;;;;;;0.63;0.63;;;;;;;;;;5019363;28;20053;-77
2024/01/31 11:05:28;;;;;;;0.10;0.10;;;;;;;;;;5024534;28;20121;-77
2024/01/31 11:07:55;;;;;;;0.10;0.10;;;;;;;;;;5027332;28;20050;-77
2024/01/31 11:10:22;;;;;;;0.20;0.20;;;;;;;;;;5023500;28;20121;-77
2024/01/31 11:13:02;;;;;;;0.10;0.10;;;;;;;;;;5016343;28;20050;-77
2024/01/31 11:15:35;;;;;;;0.10;0.10;;;;;;;;;;5020064;28;20050;-81
2024/01/31 11:18:11;;;;;;;1.08;1.00;;;;;;;;;;5027383;28;20057;-79
2024/01/31 11:20:39;;;;;;;0.30;0.30;;;;;;;;;;5026894;28;20837;-80
2024/01/31 11:23:06;;;;;;;0.30;0.30;;;;;;;;;;5022504;28;20057;-80
2024/01/31 11:25:34;;;;;;;0.60;0.60;;;;;;;;;;5025081;28;20046;-80
2024/01/31 11:28:02;;;;;;;0.10;0.10;;;;;;;;;;5018618;28;20097;-80
2024/01/31 11:30:29;;;;;;;0.98;0.60;;;;;;;;;;5022697;28;20038;-80
2024/01/31 11:32:55;;;;;;;0.10;0.10;;;;;;;;;;5022312;28;20141;-80
2024/01/31 11:35:25;;;;;;;0.20;0.20;;;;;;;;;;5031489;28;20177;-79
2024/01/31 11:37:52;;;;;;;0.50;0.50;;;;;;;;;;5021098;28;20065;-80
2024/01/31 11:40:21;;;;;;;1.65;0.77;;;;;;;;;;5018619;28;20069;-79
2024/01/31 11:42:48;;;;;;;0.30;0.30;;;;;;;;;;5021138;28;20047;-80
2024/01/31 11:45:15;;;;;;;0.20;0.20;;;;;;;;;;5024489;28;20053;-80
2024/01/31 11:47:42;;;;;;;0.75;0.75;;;;;;;;;;5027278;28;20137;-80
2024/01/31 11:50:08;;;;;;;0.10;0.10;;;;;;;;;;5023478;28;20086;-80
2024/01/31 11:52:35;;;;;;;0.20;0.20;;;;;;;;;;5020433;28;20048;-80
2024/01/31 11:55:01;;;;;;;0.10;0.10;;;;;;;;;;5027990;28;21425;-80
2024/01/31 11:57:27;;;;;;;0.10;0.10;;;;;;;;;;5025526;28;20062;-81
2024/01/31 11:59:54;;;;;;;2.47;1.20;;;;;;;;;;5019431;28;20113;-81
2024/01/31 12:02:21;;;;;;;0.10;0.10;;;;;;;;;;5030534;28;20060;-80
2024/01/31 12:04:51;;;;;;;0.63;0.63;;;;;;;;;;5004107;28;20085;-81
2024/01/31 12:07:18;;;;;;;0.13;0.13;;;;;;;;;;5032061;28;20061;-80
2024/01/31 12:09:44;;;;;;;2.28;2.08;;;;;;;;;;5027221;28;20177;-79
2024/01/31 12:12:11;;;;;;;0.10;0.10;;;;;;;;;;5031166;28;20058;-79
2024/01/31 12:14:41;;;;;;;0.10;0.10;;;;;;;;;;5028280;28;20064;-82
2024/01/31 12:17:20;;;;;;;0.20;0.20;;;;;;;;;;5021535;28;20046;-81
2024/01/31 12:19:47;;;;;;;0.52;0.52;;;;;;;;;;5029271;28;20057;-80
2024/01/31 12:22:13;;;;;;;0.22;0.22;;;;;;;;;;5031357;28;20034;-82
2024/01/31 12:24:40;;;;;;;0.20;0.20;;;;;;;;;;5034626;28;20700;-82
2024/01/31 12:27:06;;;;;;;0.10;0.10;;;;;;;;;;5032011;28;20088;-81
2024/01/31 12:29:32;;;;;;;0.10;0.10;;;;;;;;;;5018420;28;20085;-81
2024/01/31 12:32:02;;;;;;;0.10;0.10;;;;;;;;;;5024389;28;20054;-81
2024/01/31 12:34:28;;;;;;;0.10;0.10;;;;;;;;;;5023998;28;20046;-81
2024/01/31 12:36:54;;;;;;;0.10;0.10;;;;;;;;;;5032724;28;20516;-80
2024/01/31 12:39:21;;;;;;;0.40;0.38;;;;;;;;;;5039283;28;20073;-80
2024/01/31 12:41:48;;;;;;;0.10;0.10;;;;;;;;;;5022367;28;20054;-80
2024/01/31 12:44:15;;;;;;;0.10;0.10;;;;;;;;;;5029632;28;20058;-80
2024/01/31 12:46:42;;;;;;;1.17;1.17;;;;;;;;;;5037382;28;20093;-81
2024/01/31 12:49:09;;;;;;;0.20;0.20;;;;;;;;;;5034078;28;20061;-80
2024/01/31 12:51:36;;;;;;;0.17;0.17;;;;;;;;;;5027289;28;20053;-80
2024/01/31 12:54:02;;;;;;;0.52;0.52;;;;;;;;;;5024374;28;20068;-80
2024/01/31 12:56:29;;;;;;;0.20;0.20;;;;;;;;;;5029629;28;20050;-81
2024/01/31 12:58:57;;;;;;;0.10;0.10;;;;;;;;;;5030162;28;20050;-81
2024/01/31 13:01:23;;;;;;;0.17;0.17;;;;;;;;;;5027478;28;20100;-81
2024/01/31 13:03:50;;;;;;;0.10;0.10;;;;;;;;;;5022800;28;20055;-80
2024/01/31 13:06:17;;;;;;;0.40;0.40;;;;;;;;;;5026621;28;20053;-80
2024/01/31 13:08:43;;;;;;;0.10;0.10;;;;;;;;;;5025856;28;20055;-81
2024/01/31 13:11:12;;;;;;;0.52;0.50;;;;;;;;;;5025894;28;20066;-80
2024/01/31 13:13:40;;;;;;;0.10;0.10;;;;;;;;;;5027598;28;20919;-81
2024/01/31 13:16:06;;;;;;;0.10;0.10;;;;;;;;;;5025717;28;20054;-81
2024/01/31 13:18:33;;;;;;;0.20;0.20;;;;;;;;;;5023243;28;20089;-80
2024/01/31 13:21:00;;;;;;;0.38;0.38;;;;;;;;;;5031127;28;20058;-80
2024/01/31 13:23:26;;;;;;;1.00;0.57;;;;;;;;;;5026666;28;20058;-80
2024/01/31 13:25:53;;;;;;;0.10;0.10;;;;;;;;;;5019209;28;20061;-81
2024/01/31 13:28:20;;;;;;;0.10;0.10;;;;;;;;;;5024423;28;20050;-80
2024/01/31 13:30:46;;;;;;;0.10;0.10;;;;;;;;;;5026827;28;20065;-80
2024/01/31 13:33:13;;;;;;;0.10;0.10;;;;;;;;;;5032275;28;20054;-80
2024/01/31 13:35:40;;;;;;;0.38;0.38;;;;;;;;;;5028935;28;20050;-81
2024/01/31 13:38:06;;;;;;;0.10;0.10;;;;;;;;;;5020456;28;20500;-80
2024/01/31 13:40:33;;;;;;;0.10;0.10;;;;;;;;;;5021220;28;20073;-81
2024/01/31 13:42:59;;;;;;;0.10;0.10;;;;;;;;;;5025580;28;20061;-80
2024/01/31 13:45:26;;;;;;;0.10;0.10;;;;;;;;;;5025492;28;20837;-78
2024/01/31 13:47:53;;;;;;;0.10;0.10;;;;;;;;;;5032361;28;20085;-79
2024/01/31 13:50:19;;;;;;;0.20;0.20;;;;;;;;;;5017238;28;20057;-80
2024/01/31 13:52:46;;;;;;;0.15;0.15;;;;;;;;;;5021511;28;20046;-81
2024/01/31 13:55:13;;;;;;;0.10;0.10;;;;;;;;;;5020874;28;20046;-81
2024/01/31 13:57:39;;;;;;;0.52;0.45;;;;;;;;;;5032656;28;20061;-81
2024/01/31 14:00:06;;;;;;;0.10;0.10;;;;;;;;;;5024464;28;20050;-80
2024/01/31 14:02:36;;;;;;;0.40;0.40;;;;;;;;;;5014894;28;20109;-80
2024/01/31 14:05:03;;;;;;;1.25;1.15;;;;;;;;;;5022312;28;20058;-80
2024/01/31 14:07:30;;;;;;;0.10;0.10;;;;;;;;;;5013522;28;20803;-81
2024/01/31 14:09:57;;;;;;;0.10;0.10;;;;;;;;;;5026077;28;20499;-81
2024/01/31 14:12:24;;;;;;;0.10;0.10;;;;;;;;;;5028019;28;20082;-81
2024/01/31 14:14:50;;;;;;;0.32;0.32;;;;;;;;;;5018728;28;20030;-82
2024/01/31 14:17:17;;;;;;;0.20;0.20;;;;;;;;;;5022738;28;20497;-81
2024/01/31 14:19:43;;;;;;;0.20;0.20;;;;;;;;;;5023615;28;20054;-81
2024/01/31 14:22:09;;;;;;;0.10;0.10;;;;;;;;;;5032651;28;20432;-81
2024/01/31 14:24:47;;;;;;;0.10;0.10;;;;;;;;;;5031433;28;20061;-81
2024/01/31 14:27:14;;;;;;;0.10;0.10;;;;;;;;;;5027764;28;20778;-78
2024/01/31 14:29:40;;;;;;;0.10;0.10;;;;;;;;;;5022999;28;20153;-80
2024/01/31 14:32:12;;;;;;;0.15;0.15;;;;;;;;;;5030916;28;20097;-83
2024/01/31 14:34:39;;;;;;;0.10;0.10;;;;;;;;;;5027378;28;20098;-82
2024/01/31 14:37:05;;;;;;;0.55;0.55;;;;;;;;;;5022604;28;20089;-82
2024/01/31 14:39:32;;;;;;;0.75;0.75;;;;;;;;;;5025508;28;20050;-81
2024/01/31 14:41:58;;;;;;;0.10;0.10;;;;;;;;;;5026648;28;20057;-81
2024/01/31 14:44:24;;;;;;;0.10;0.10;;;;;;;;;;5017993;28;20054;-81
2024/01/31 14:46:51;;;;;;;0.40;0.40;;;;;;;;;;5027319;28;20045;-81